Time;durP1;ratioP1;P1;durP2;ratioP2;P2;SDS_P1;SDS_P2;PMS_P1;PMS_P2;Temp;Humidity;BMP_temperature;BMP_pressure;BME280_temperature;BME280_humidity;BME280_pressure;Samples;Min_cycle;Max_cycle;Signal;HPM_P1;HPM_P2
2023/08/21 00:00:37;;;;;;;0.50;0.30;;;;;;;23.20;100.00;100734.34;5032076;28;20509;-52
2023/08/21 00:03:04;;;;;;;0.50;0.20;;;;;;;23.31;100.00;100737.16;5034956;28;20488;-52
2023/08/21 00:05:31;;;;;;;0.57;0.40;;;;;;;23.26;100.00;100736.59;5031260;28;20518;-52
2023/08/21 00:07:57;;;;;;;0.50;0.20;;;;;;;23.23;100.00;100734.13;5035274;28;20422;-52
2023/08/21 00:10:24;;;;;;;0.50;0.30;;;;;;;23.35;100.00;100740.50;5026622;28;20432;-52
2023/08/21 00:12:50;;;;;;;0.50;0.30;;;;;;;23.31;100.00;100739.84;5035031;28;20451;-52
2023/08/21 00:15:17;;;;;;;0.50;0.20;;;;;;;23.43;100.00;100739.91;5035135;28;20552;-52
2023/08/21 00:17:44;;;;;;;0.50;0.20;;;;;;;23.29;100.00;100736.38;5035096;28;20528;-52
2023/08/21 00:20:11;;;;;;;0.50;0.20;;;;;;;23.17;100.00;100741.88;5033341;28;20915;-52
2023/08/21 00:22:37;;;;;;;0.50;0.20;;;;;;;22.85;100.00;100738.78;5023258;28;20950;-52
2023/08/21 00:25:04;;;;;;;0.50;0.20;;;;;;;22.91;100.00;100732.94;5030667;28;20511;-52
2023/08/21 00:27:31;;;;;;;0.50;0.20;;;;;;;22.85;100.00;100730.63;5027229;28;20518;-52
2023/08/21 00:30:00;;;;;;;0.50;0.20;;;;;;;22.98;100.00;100735.06;5034965;28;20422;-52
2023/08/21 00:32:26;;;;;;;0.50;0.20;;;;;;;22.94;100.00;100732.69;5034902;28;20530;-52
2023/08/21 00:34:53;;;;;;;0.50;0.30;;;;;;;22.84;100.00;100735.19;5015066;28;20455;-52
2023/08/21 00:37:19;;;;;;;0.50;0.30;;;;;;;22.88;100.00;100735.84;5006978;28;20948;-53
2023/08/21 00:39:46;;;;;;;0.50;0.30;;;;;;;22.85;100.00;100733.34;5034411;28;20426;-53
2023/08/21 00:42:12;;;;;;;0.50;0.30;;;;;;;22.73;100.00;100727.81;5031877;28;20426;-52
2023/08/21 00:44:39;;;;;;;0.50;0.30;;;;;;;22.73;100.00;100733.22;5014450;28;20477;-52
2023/08/21 00:47:06;;;;;;;0.50;0.20;;;;;;;22.77;100.00;100728.47;5028020;28;20510;-52
2023/08/21 00:49:32;;;;;;;0.50;0.30;;;;;;;22.82;100.00;100722.72;5008924;28;20422;-53
2023/08/21 00:52:00;;;;;;;0.50;0.20;;;;;;;22.79;100.00;100733.78;5034275;28;20463;-53
2023/08/21 00:54:26;;;;;;;0.50;0.20;;;;;;;22.74;100.00;100726.81;5021247;28;20889;-53
2023/08/21 00:56:53;;;;;;;0.50;0.20;;;;;;;22.77;100.00;100723.03;5029753;28;20940;-53
2023/08/21 00:59:20;;;;;;;0.50;0.30;;;;;;;22.68;100.00;100724.56;5034240;28;20513;-53
2023/08/21 01:01:47;;;;;;;0.50;0.20;;;;;;;22.61;100.00;100722.41;5034223;28;20547;-53
2023/08/21 01:04:13;;;;;;;0.50;0.23;;;;;;;22.60;100.00;100716.09;5034031;28;20499;-53
2023/08/21 01:06:40;;;;;;;0.50;0.20;;;;;;;22.61;100.00;100711.56;5034042;28;20828;-53
2023/08/21 01:09:15;;;;;;;0.50;0.30;;;;;;;22.53;100.00;100722.97;5022582;28;20517;-52
2023/08/21 01:12:11;;;;;;;0.50;0.30;;;;;;;22.45;100.00;100719.91;5033726;28;20451;-52
2023/08/21 01:15:00;;;;;;;0.50;0.20;;;;;;;22.52;100.00;100723.06;5033843;28;20883;-52
2023/08/21 01:17:29;;;;;;;0.50;0.20;;;;;;;22.74;100.00;100729.53;5013083;28;20425;-53
2023/08/21 01:19:56;;;;;;;0.60;0.60;;;;;;;22.74;100.00;100729.53;5033977;28;20426;-53
2023/08/21 01:22:40;;;;;;;0.50;0.30;;;;;;;22.81;100.00;100737.25;5025805;28;20456;-53
2023/08/21 01:25:09;;;;;;;0.50;0.27;;;;;;;22.72;100.00;100738.75;5030385;28;20474;-53
2023/08/21 01:27:35;;;;;;;0.50;0.30;;;;;;;22.80;100.00;100736.38;5009198;28;20569;-52
2023/08/21 01:30:06;;;;;;;0.60;0.47;;;;;;;22.45;100.00;100742.47;5033616;28;20559;-52
2023/08/21 01:32:37;;;;;;;0.50;0.30;;;;;;;22.59;100.00;100746.03;5034023;28;20451;-52
2023/08/21 01:35:06;;;;;;;0.50;0.20;;;;;;;22.53;100.00;100749.19;5021928;28;20484;-53
2023/08/21 01:37:32;;;;;;;0.50;0.27;;;;;;;22.61;100.00;100746.78;5028157;28;20919;-53
2023/08/21 01:39:59;;;;;;;0.50;0.30;;;;;;;22.47;100.00;100742.34;5027017;28;20843;-52
2023/08/21 01:42:26;;;;;;;0.50;0.30;;;;;;;22.47;100.00;100745.06;5015230;28;20918;-52
2023/08/21 01:44:52;;;;;;;0.50;0.20;;;;;;;22.47;100.00;100743.22;5019876;28;20473;-53
2023/08/21 01:47:19;;;;;;;0.50;0.27;;;;;;;22.53;100.00;100746.47;5028713;28;20521;-53
2023/08/21 01:49:45;;;;;;;0.50;0.20;;;;;;;22.54;100.00;100743.66;5028854;28;20460;-53
2023/08/21 01:52:12;;;;;;;0.50;0.30;;;;;;;22.61;100.00;100739.53;5033514;28;20884;-52
2023/08/21 01:54:38;;;;;;;0.50;0.23;;;;;;;22.62;100.00;100744.00;5033244;28;20466;-52
2023/08/21 01:57:05;;;;;;;0.50;0.27;;;;;;;22.63;100.00;100751.16;5029142;28;20452;-52
2023/08/21 01:59:31;;;;;;;0.50;0.30;;;;;;;22.61;100.00;100746.78;5025510;28;21032;-51
2023/08/21 02:01:58;;;;;;;0.50;0.20;;;;;;;22.57;100.00;100748.84;5028744;28;20551;-52
2023/08/21 02:04:24;;;;;;;0.50;0.20;;;;;;;22.56;100.00;100747.13;5033148;28;20539;-52
2023/08/21 02:06:50;;;;;;;0.50;0.20;;;;;;;22.52;100.00;100742.91;5030991;28;20452;-52
2023/08/21 02:09:17;;;;;;;0.50;0.30;;;;;;;22.59;100.00;100743.31;5022246;28;20448;-52
2023/08/21 02:11:43;;;;;;;0.50;0.20;;;;;;;22.66;100.00;100740.06;5021680;28;20543;-53
2023/08/21 02:14:10;;;;;;;0.50;0.20;;;;;;;22.59;100.00;100746.91;5033113;28;20471;-52
2023/08/21 02:16:36;;;;;;;0.50;0.30;;;;;;;22.63;100.00;100748.44;5025759;28;20430;-52
2023/08/21 02:19:02;;;;;;;0.50;0.30;;;;;;;22.56;100.00;100746.25;5032819;28;20455;-52
2023/08/21 02:21:29;;;;;;;0.50;0.20;;;;;;;22.57;100.00;100743.44;5032702;28;20543;-52
2023/08/21 02:23:55;;;;;;;0.50;0.20;;;;;;;22.37;100.00;100746.72;5032328;28;20993;-52
2023/08/21 02:26:22;;;;;;;0.50;0.20;;;;;;;22.35;100.00;100752.25;5022124;28;20491;-52
2023/08/21 02:28:48;;;;;;;0.50;0.30;;;;;;;22.38;100.00;100748.44;5032733;28;20547;-53
2023/08/21 02:31:15;;;;;;;0.50;0.20;;;;;;;22.34;100.00;100753.22;5027158;28;20434;-52
2023/08/21 02:33:41;;;;;;;0.50;0.20;;;;;;;22.24;100.00;100749.41;5031764;28;20476;-53
2023/08/21 02:36:07;;;;;;;0.50;0.20;;;;;;;22.20;100.00;100744.28;5016739;28;20454;-52
2023/08/21 02:38:34;;;;;;;0.50;0.30;;;;;;;22.16;100.00;100746.34;5032466;28;20829;-52
2023/08/21 02:41:00;;;;;;;0.50;0.20;;;;;;;22.15;100.00;100739.19;5032599;28;20430;-52
2023/08/21 02:43:27;;;;;;;0.50;0.20;;;;;;;22.26;100.00;100746.59;5029951;28;20422;-52
2023/08/21 02:45:53;;;;;;;0.50;0.20;;;;;;;22.37;100.00;100752.13;5017095;28;20454;-52
2023/08/21 02:48:20;;;;;;;0.50;0.20;;;;;;;22.36;100.00;100744.97;5032464;28;20458;-52
2023/08/21 02:50:46;;;;;;;0.50;0.30;;;;;;;22.38;100.00;100749.31;5032308;28;20455;-52
2023/08/21 02:53:13;;;;;;;0.50;0.20;;;;;;;22.30;100.00;100742.69;5032251;28;20850;-52
2023/08/21 02:55:39;;;;;;;0.50;0.20;;;;;;;22.36;100.00;100744.97;5028497;28;20503;-52
2023/08/21 02:58:06;;;;;;;0.50;0.30;;;;;;;22.20;100.00;100747.84;5032375;28;20445;-52
2023/08/21 03:00:32;;;;;;;0.50;0.20;;;;;;;22.22;100.00;100740.53;5030063;28;20429;-52
2023/08/21 03:02:59;;;;;;;0.50;0.20;;;;;;;22.11;100.00;100743.97;5032383;28;20540;-52
2023/08/21 03:05:25;;;;;;;0.50;0.20;;;;;;;22.07;100.00;100742.47;5032047;28;20878;-52
2023/08/21 03:07:52;;;;;;;0.50;0.20;;;;;;;22.10;100.00;100741.38;5032139;28;20422;-52
2023/08/21 03:10:19;;;;;;;0.50;0.20;;;;;;;22.10;100.00;100749.50;5032424;28;20426;-52
2023/08/21 03:12:45;;;;;;;2.50;2.30;;;;;;;21.88;100.00;100747.34;5021473;28;20434;-53
2023/08/21 03:15:12;;;;;;;0.50;0.20;;;;;;;21.82;100.00;100737.81;5029834;28;20468;-52
2023/08/21 03:17:39;;;;;;;0.50;0.20;;;;;;;21.82;100.00;100736.97;5032108;28;20936;-53
2023/08/21 03:20:06;;;;;;;0.50;0.20;;;;;;;21.69;100.00;100746.88;5032115;28;20436;-52
2023/08/21 03:22:32;;;;;;;0.50;0.20;;;;;;;21.84;100.00;100749.41;5031970;28;21002;-52
2023/08/21 03:24:59;;;;;;;0.50;0.30;;;;;;;21.79;100.00;100746.16;5029571;28;20466;-52
2023/08/21 03:27:25;;;;;;;0.50;0.20;;;;;;;21.71;100.00;100750.34;5014321;28;20423;-51
2023/08/21 03:29:52;;;;;;;0.50;0.20;;;;;;;21.57;100.00;100752.13;5030681;28;20795;-52
2023/08/21 03:32:18;;;;;;;0.50;0.20;;;;;;;21.69;100.00;100757.69;5032051;28;20451;-53
2023/08/21 03:34:44;;;;;;;0.50;0.20;;;;;;;21.55;100.00;100756.78;5022297;28;20478;-53
2023/08/21 03:37:11;;;;;;;0.50;0.20;;;;;;;21.53;100.00;100756.03;5026462;28;20490;-53
2023/08/21 03:39:38;;;;;;;0.50;0.20;;;;;;;21.60;100.00;100756.47;5034440;28;20452;-52
2023/08/21 03:42:05;;;;;;;0.50;0.20;;;;;;;21.57;100.00;100752.13;5028892;28;20447;-52
2023/08/21 03:44:31;;;;;;;0.50;0.20;;;;;;;21.54;100.00;100755.06;5025290;28;20443;-52
2023/08/21 03:46:58;;;;;;;0.50;0.20;;;;;;;21.63;100.00;100760.81;5028206;28;20966;-52
2023/08/21 03:49:24;;;;;;;0.50;0.20;;;;;;;21.62;100.00;100761.78;5032510;28;20871;-52
2023/08/21 03:51:51;;;;;;;0.50;0.20;;;;;;;21.58;100.00;100756.56;5035863;28;20948;-52
2023/08/21 03:54:17;;;;;;;0.50;0.20;;;;;;;21.55;100.00;100756.78;5035404;28;20821;-52
2023/08/21 03:56:44;;;;;;;0.50;0.20;;;;;;;21.39;100.00;100750.66;5031418;28;20534;-52
2023/08/21 03:59:10;;;;;;;0.50;0.20;;;;;;;21.43;100.00;100759.44;5035539;28;20513;-52
2023/08/21 04:01:37;;;;;;;0.50;0.20;;;;;;;21.51;100.00;100747.13;5035363;28;20426;-53
2023/08/21 04:04:03;;;;;;;0.50;0.40;;;;;;;21.52;100.00;100756.13;5033454;28;20900;-53
2023/08/21 04:06:30;;;;;;;0.50;0.30;;;;;;;21.56;100.00;100757.66;5035140;28;21050;-53
2023/08/21 04:08:56;;;;;;;0.50;0.30;;;;;;;21.47;100.00;100772.66;5029380;28;20875;-52
2023/08/21 04:11:23;;;;;;;0.50;0.20;;;;;;;21.47;100.00;100767.25;5035306;28;20483;-53
2023/08/21 04:13:49;;;;;;;0.50;0.20;;;;;;;21.39;100.00;100768.72;5029995;28;20469;-52
2023/08/21 04:16:17;;;;;;;0.50;0.20;;;;;;;21.28;100.00;100772.13;5028404;28;20429;-52
2023/08/21 04:18:44;;;;;;;0.50;0.20;;;;;;;21.32;100.00;100767.38;5024329;28;20455;-52
2023/08/21 04:21:10;;;;;;;0.50;0.20;;;;;;;21.20;100.00;100769.00;5032875;28;20510;-53
2023/08/21 04:23:37;;;;;;;0.50;0.20;;;;;;;21.08;100.00;100759.84;5034969;28;20468;-52
2023/08/21 04:26:04;;;;;;;0.50;0.30;;;;;;;21.16;100.00;100765.66;5024287;28;20507;-52
2023/08/21 04:28:32;;;;;;;0.50;0.20;;;;;;;21.15;100.00;100772.03;5017028;28;20478;-53
2023/08/21 04:30:58;;;;;;;0.50;0.20;;;;;;;21.20;100.00;100772.59;5034641;28;20525;-52
2023/08/21 04:33:27;;;;;;;0.50;0.30;;;;;;;21.45;100.00;100776.44;5034458;28;20422;-52
2023/08/21 04:35:54;;;;;;;0.50;0.20;;;;;;;21.43;100.00;100781.94;5017069;28;20455;-52
2023/08/21 04:38:20;;;;;;;0.50;0.20;;;;;;;21.43;100.00;100781.06;5027008;28;20452;-52
2023/08/21 04:40:47;;;;;;;0.50;0.30;;;;;;;21.41;100.00;100781.19;5014157;28;20431;-53
2023/08/21 04:43:13;;;;;;;2.53;2.43;;;;;;;21.51;100.00;100779.59;5033965;28;20437;-53
2023/08/21 04:45:50;;;;;;;0.50;0.20;;;;;;;21.56;100.00;100782.00;5016052;28;21057;-52
2023/08/21 04:48:17;;;;;;;0.50;0.20;;;;;;;21.49;100.00;100784.22;5034200;28;20467;-52
2023/08/21 04:50:43;;;;;;;4.33;1.60;;;;;;;21.45;100.00;100785.41;5034474;28;20476;-52
2023/08/21 04:53:09;;;;;;;0.50;0.20;;;;;;;21.53;100.00;100784.91;5034568;28;20459;-52
2023/08/21 04:55:36;;;;;;;0.50;0.20;;;;;;;21.47;100.00;100779.91;5027269;28;20468;-52
2023/08/21 04:58:03;;;;;;;0.50;0.30;;;;;;;21.59;100.00;100788.06;5024498;28;20448;-52
2023/08/21 05:00:30;;;;;;;0.50;0.20;;;;;;;21.54;100.00;100792.06;5034026;28;20455;-52
2023/08/21 05:02:57;;;;;;;0.50;0.20;;;;;;;21.45;100.00;100788.13;5026992;28;20550;-52
2023/08/21 05:05:23;;;;;;;0.50;0.20;;;;;;;21.44;100.00;100789.09;5033961;28;20466;-53
2023/08/21 05:07:49;;;;;;;0.50;0.20;;;;;;;21.39;100.00;100791.25;5034094;28;20423;-53
2023/08/21 05:10:16;;;;;;;0.50;0.20;;;;;;;21.48;100.00;100787.91;5032770;28;20465;-53
2023/08/21 05:12:42;;;;;;;0.50;0.20;;;;;;;21.89;100.00;100790.56;5033859;28;20831;-53
2023/08/21 05:15:09;;;;;;;0.50;0.20;;;;;;;22.56;100.00;100795.91;5033897;28;20837;-53
2023/08/21 05:17:35;;;;;;;0.50;0.30;;;;;;;22.94;100.00;100793.22;5033740;28;20423;-53
2023/08/21 05:20:03;;;;;;;0.50;0.20;;;;;;;23.46;98.08;100793.97;5034067;28;20944;-52
2023/08/21 05:22:29;;;;;;;0.47;0.20;;;;;;;24.01;95.80;100804.28;5033788;28;20461;-53
2023/08/21 05:24:55;;;;;;;0.50;0.20;;;;;;;23.91;96.58;100801.41;5028938;28;20462;-52
2023/08/21 05:27:22;;;;;;;0.50;0.20;;;;;;;23.72;96.74;100798.34;5025082;28;20469;-53
2023/08/21 05:29:51;;;;;;;0.50;0.20;;;;;;;23.44;98.14;100804.06;5015905;28;20992;-53
2023/08/21 05:32:17;;;;;;;0.60;0.30;;;;;;;23.05;100.00;100795.16;5033380;28;20945;-52
2023/08/21 05:34:44;;;;;;;0.50;0.20;;;;;;;23.04;100.00;100802.44;5023658;28;20457;-52
2023/08/21 05:37:11;;;;;;;0.50;0.20;;;;;;;23.16;99.82;100805.19;5025617;28;20447;-52
2023/08/21 05:39:37;;;;;;;0.50;0.20;;;;;;;23.68;97.43;100807.69;5014924;28;20467;-53
2023/08/21 05:42:04;;;;;;;0.50;0.20;;;;;;;24.16;95.46;100813.09;5025715;28;20935;-52
2023/08/21 05:44:30;;;;;;;0.50;0.20;;;;;;;24.54;93.20;100815.59;5022436;28;20449;-52
2023/08/21 05:46:57;;;;;;;0.50;0.20;;;;;;;24.63;92.63;100809.41;5025714;28;20582;-52
2023/08/21 05:49:23;;;;;;;0.50;0.30;;;;;;;24.94;91.33;100817.84;5018026;28;20818;-53
2023/08/21 05:51:49;;;;;;;0.50;0.30;;;;;;;24.91;91.08;100821.69;5017762;28;20451;-52
2023/08/21 05:54:16;;;;;;;0.50;0.30;;;;;;;25.14;90.44;100816.28;5024764;28;20471;-53
2023/08/21 05:56:42;;;;;;;0.50;0.30;;;;;;;25.24;90.38;100829.03;5032935;28;20428;-53
2023/08/21 05:59:11;;;;;;;0.50;0.20;;;;;;;25.31;89.83;100826.66;5032044;28;20450;-53
2023/08/21 06:01:38;;;;;;;0.50;0.40;;;;;;;25.18;90.59;100825.94;5033012;28;20422;-53
2023/08/21 06:04:05;;;;;;;0.50;0.27;;;;;;;24.89;92.71;100831.81;5006621;28;20567;-53
2023/08/21 06:06:31;;;;;;;0.50;0.30;;;;;;;25.03;91.78;100826.19;5026735;28;20476;-53
2023/08/21 06:08:58;;;;;;;0.50;0.30;;;;;;;24.42;93.83;100825.56;5028460;28;20422;-52
2023/08/21 06:11:24;;;;;;;0.50;0.30;;;;;;;24.59;93.35;100816.09;5032529;28;20500;-53
2023/08/21 06:13:51;;;;;;;0.50;0.20;;;;;;;24.29;95.44;100824.75;5032712;28;20465;-53
2023/08/21 06:16:17;;;;;;;0.50;0.30;;;;;;;24.24;95.82;100826.94;5029753;28;20431;-53
2023/08/21 06:18:44;;;;;;;0.50;0.20;;;;;;;24.17;97.26;100822.97;5028717;28;20449;-53
2023/08/21 06:21:10;;;;;;;0.50;0.20;;;;;;;24.21;96.81;100827.19;5026284;28;20906;-53
2023/08/21 06:23:37;;;;;;;0.50;0.20;;;;;;;24.36;96.32;100817.88;5032239;28;20467;-53
2023/08/21 06:26:04;;;;;;;0.50;0.30;;;;;;;24.45;95.79;100817.19;5006767;28;20506;-53
2023/08/21 06:28:31;;;;;;;0.50;0.20;;;;;;;24.06;97.07;100821.09;5031404;28;20995;-53
2023/08/21 06:31:03;;;;;;;0.50;0.30;;;;;;;23.72;99.14;100824.63;5030238;28;20836;-53
2023/08/21 06:33:30;;;;;;;0.50;0.20;;;;;;;23.93;99.00;100820.28;5031849;28;20426;-52
2023/08/21 06:35:57;;;;;;;0.50;0.20;;;;;;;24.11;98.49;100824.31;5013440;28;20992;-53
2023/08/21 06:38:24;;;;;;;0.50;0.20;;;;;;;24.16;97.46;100823.97;5013985;28;20457;-53
2023/08/21 06:40:50;;;;;;;0.50;0.27;;;;;;;23.88;99.31;100817.94;5013036;28;20473;-53
2023/08/21 06:43:17;;;;;;;0.50;0.30;;;;;;;24.24;98.09;100829.66;5015420;28;20793;-53
2023/08/21 06:45:43;;;;;;;0.50;0.20;;;;;;;24.39;96.51;100825.78;5014733;28;20495;-53
2023/08/21 06:48:10;;;;;;;0.50;0.20;;;;;;;24.36;96.99;100826.03;5028814;28;20513;-53
2023/08/21 06:50:37;;;;;;;0.50;0.30;;;;;;;24.36;96.90;100825.16;5032074;28;21034;-53
2023/08/21 06:53:03;;;;;;;0.50;0.20;;;;;;;24.49;96.35;100831.38;5032002;28;20858;-53
2023/08/21 06:55:30;;;;;;;0.63;0.63;;;;;;;24.67;94.96;100829.97;5026726;28;20451;-53
2023/08/21 06:57:56;;;;;;;0.50;0.20;;;;;;;24.62;95.47;100826.72;5021612;28;20964;-52
2023/08/21 07:00:23;;;;;;;0.50;0.20;;;;;;;24.63;95.30;100817.56;5001312;28;20446;-53
2023/08/21 07:02:49;;;;;;;0.50;0.30;;;;;;;24.64;95.68;100819.31;5026276;28;20510;-53
2023/08/21 07:05:16;;;;;;;0.50;0.20;;;;;;;24.96;94.16;100824.94;5026392;28;20473;-53
2023/08/21 07:07:43;;;;;;;0.50;0.20;;;;;;;24.95;94.46;100819.63;5026634;28;20489;-53
2023/08/21 07:10:10;;;;;;;0.50;0.20;;;;;;;24.73;95.26;100825.88;5024621;28;20444;-53
2023/08/21 07:12:36;;;;;;;0.50;0.30;;;;;;;24.67;96.30;100823.63;5025802;28;21004;-53
2023/08/21 07:15:04;;;;;;;0.50;0.20;;;;;;;24.61;95.97;100825.00;5022427;28;20478;-53
2023/08/21 07:17:30;;;;;;;0.50;0.30;;;;;;;24.66;96.77;100830.06;5021830;28;20487;-52
2023/08/21 07:19:57;;;;;;;0.50;0.20;;;;;;;24.65;95.81;100822.88;5032947;28;20455;-53
2023/08/21 07:22:23;;;;;;;0.50;0.20;;;;;;;24.95;94.25;100833.22;5031674;28;20434;-52
2023/08/21 07:24:50;;;;;;;0.50;0.20;;;;;;;25.12;91.65;100827.31;5027545;28;20475;-53
2023/08/21 07:27:16;;;;;;;0.50;0.20;;;;;;;25.50;91.16;100831.50;5030821;28;20984;-53
2023/08/21 07:29:42;;;;;;;0.50;0.30;;;;;;;25.63;90.39;100830.34;5031156;28;20460;-53
2023/08/21 07:32:09;;;;;;;0.50;0.30;;;;;;;25.50;91.93;100834.22;5026546;28;20452;-53
2023/08/21 07:34:36;;;;;;;0.50;0.30;;;;;;;25.53;89.78;100828.50;5023614;28;20496;-54
2023/08/21 07:37:02;;;;;;;0.50;0.20;;;;;;;25.82;88.93;100826.09;5016749;28;20438;-52
2023/08/21 07:39:29;;;;;;;0.50;0.30;;;;;;;25.94;89.32;100825.09;5022784;28;20460;-53
2023/08/21 07:41:55;;;;;;;0.50;0.30;;;;;;;26.07;88.54;100824.91;5025105;28;20466;-53
2023/08/21 07:44:22;;;;;;;0.50;0.43;;;;;;;26.17;88.71;100821.25;5023759;28;20817;-53
2023/08/21 07:46:48;;;;;;;0.50;0.20;;;;;;;26.38;87.66;100828.63;5017160;28;20488;-53
2023/08/21 07:49:15;;;;;;;0.50;0.27;;;;;;;26.74;86.30;100825.44;5024614;28;20453;-54
2023/08/21 07:51:41;;;;;;;0.50;0.30;;;;;;;26.45;87.11;100818.91;5022222;28;20895;-53
2023/08/21 07:54:07;;;;;;;0.50;0.30;;;;;;;26.32;88.28;100829.13;5019235;28;20478;-53
2023/08/21 07:56:35;;;;;;;0.50;0.20;;;;;;;26.53;87.18;100822.72;5018870;28;20462;-53
2023/08/21 07:59:02;;;;;;;0.50;0.30;;;;;;;26.74;87.34;100822.72;5026921;28;20452;-53
2023/08/21 08:01:29;;;;;;;0.50;0.30;;;;;;;26.59;85.89;100826.78;5031782;28;20891;-54
2023/08/21 08:03:56;;;;;;;0.50;0.30;;;;;;;26.72;85.81;100826.53;5034782;28;20468;-53
2023/08/21 08:06:23;;;;;;;0.50;0.20;;;;;;;26.60;86.55;100828.50;5028087;28;20481;-53
2023/08/21 08:08:50;;;;;;;0.50;0.30;;;;;;;26.82;86.60;100827.47;5030191;28;20527;-53
2023/08/21 08:11:16;;;;;;;0.50;0.30;;;;;;;27.45;85.28;100828.22;5024192;28;20514;-53
2023/08/21 08:13:42;;;;;;;0.50;0.30;;;;;;;27.71;84.68;100820.41;5019439;28;20472;-53
2023/08/21 08:16:09;;;;;;;0.50;0.30;;;;;;;27.61;84.20;100814.03;5018330;28;20882;-54
2023/08/21 08:18:35;;;;;;;0.50;0.20;;;;;;;27.70;84.09;100819.56;5034442;28;20845;-53
2023/08/21 08:21:02;;;;;;;0.50;0.30;;;;;;;28.03;82.78;100820.16;5031469;28;20451;-54
2023/08/21 08:23:28;;;;;;;0.50;0.30;;;;;;;27.59;84.13;100816.03;5033849;28;20455;-53
2023/08/21 08:25:55;;;;;;;0.60;0.30;;;;;;;27.44;84.52;100816.44;5029604;28;20487;-53
2023/08/21 08:28:21;;;;;;;0.50;0.30;;;;;;;27.67;82.70;100814.34;5034306;28;20454;-53
2023/08/21 08:30:48;;;;;;;0.50;0.20;;;;;;;27.63;83.34;100817.47;5028533;28;20430;-53
2023/08/21 08:33:15;;;;;;;0.50;0.23;;;;;;;27.49;83.47;100817.88;5030165;28;20536;-53
2023/08/21 08:35:42;;;;;;;0.50;0.30;;;;;;;27.66;82.63;100814.50;5014427;28;20475;-53
2023/08/21 08:38:08;;;;;;;0.50;0.30;;;;;;;27.91;83.05;100822.16;5008362;28;20543;-53
2023/08/21 08:40:42;;;;;;;0.50;0.30;;;;;;;28.25;81.05;100819.00;5022453;28;20921;-53
2023/08/21 08:43:11;;;;;;;0.50;0.30;;;;;;;28.35;81.08;100819.88;5020695;28;20475;-53
2023/08/21 08:45:38;;;;;;;0.50;0.30;;;;;;;28.32;79.68;100817.44;5015949;28;20468;-53
2023/08/21 08:48:05;;;;;;;0.50;0.30;;;;;;;28.46;80.41;100816.13;5016743;28;20535;-53
2023/08/21 08:50:32;;;;;;;0.50;0.30;;;;;;;28.55;78.17;100810.66;5020122;28;20488;-53
2023/08/21 08:52:59;;;;;;;0.50;0.30;;;;;;;28.49;78.06;100805.75;5028338;28;20451;-53
2023/08/21 08:55:40;;;;;;;0.50;0.30;;;;;;;28.72;77.55;100802.69;5029004;28;20972;-53
2023/08/21 08:58:06;;;;;;;0.50;0.30;;;;;;;28.61;77.82;100806.44;5032425;28;20937;-53
2023/08/21 09:00:33;;;;;;;0.50;0.30;;;;;;;28.72;77.96;100810.88;5025021;28;20455;-51
2023/08/21 09:02:59;;;;;;;0.50;0.30;;;;;;;28.66;78.62;100801.41;5020530;28;20453;-51
2023/08/21 09:05:26;;;;;;;0.50;0.30;;;;;;;28.95;77.44;100811.44;5023909;28;20479;-51
2023/08/21 09:08:03;;;;;;;2.80;0.83;;;;;;;28.97;76.06;100803.94;5031664;28;20487;-52
2023/08/21 09:10:30;;;;;;;0.50;0.30;;;;;;;29.06;76.56;100811.25;5032945;28;20482;-51
2023/08/21 09:13:01;;;;;;;0.50;0.30;;;;;;;29.11;74.96;100807.03;5034159;28;20477;-50
2023/08/21 09:15:29;;;;;;;0.70;0.70;;;;;;;28.84;75.58;100807.84;5007542;28;20563;-50
2023/08/21 09:18:11;;;;;;;0.50;0.30;;;;;;;28.99;76.55;100804.63;5033640;28;20933;-50
2023/08/21 09:20:38;;;;;;;0.50;0.30;;;;;;;29.36;74.93;100804.63;5033894;28;20458;-51
2023/08/21 09:23:05;;;;;;;0.60;0.57;;;;;;;29.25;75.37;100802.94;5033548;28;20505;-50
2023/08/21 09:25:39;;;;;;;0.50;0.30;;;;;;;29.47;74.14;100796.25;5033833;28;20468;-51
2023/08/21 09:28:09;;;;;;;1.67;1.57;;;;;;;29.09;74.74;100798.13;5033585;28;20526;-49
2023/08/21 09:30:50;;;;;;;0.50;0.30;;;;;;;29.35;72.50;100801.03;5016050;28;20443;-50
2023/08/21 09:33:18;;;;;;;0.50;0.30;;;;;;;29.27;72.29;100800.91;5033273;28;20452;-51
2023/08/21 09:35:45;;;;;;;0.50;0.30;;;;;;;29.28;72.01;100797.16;5015707;28;20515;-52
2023/08/21 09:38:12;;;;;;;0.50;0.30;;;;;;;29.74;71.42;100798.94;5028799;28;20535;-50
2023/08/21 09:40:42;;;;;;;0.50;0.30;;;;;;;29.77;69.84;100795.88;5026793;28;20462;-52
2023/08/21 09:43:11;;;;;;;0.50;0.30;;;;;;;29.88;69.08;100796.66;5008580;28;20526;-50
2023/08/21 09:45:38;;;;;;;0.50;0.30;;;;;;;29.77;66.94;100792.28;5009906;28;21008;-50
2023/08/21 09:48:07;;;;;;;0.50;0.30;;;;;;;29.79;67.94;100785.63;5033106;28;20566;-52
2023/08/21 09:50:35;;;;;;;0.50;0.30;;;;;;;30.10;68.23;100779.75;5020146;28;20448;-51
2023/08/21 09:53:02;;;;;;;0.50;0.30;;;;;;;29.99;67.47;100778.09;5033276;28;20947;-50
2023/08/21 09:55:32;;;;;;;0.50;0.30;;;;;;;29.92;67.16;100787.13;5032867;28;20507;-51
2023/08/21 09:57:59;;;;;;;0.50;0.30;;;;;;;30.17;66.17;100785.50;5033130;28;20454;-51
2023/08/21 10:00:39;;;;;;;0.50;0.30;;;;;;;30.76;66.38;100784.75;5032836;28;20479;-51
2023/08/21 10:03:09;;;;;;;0.50;0.30;;;;;;;30.97;63.73;100773.34;5033112;28;20793;-51
2023/08/21 10:05:38;;;;;;;0.50;0.30;;;;;;;30.44;63.38;100779.88;5032877;28;21044;-51
2023/08/21 10:08:05;;;;;;;0.50;0.30;;;;;;;30.40;62.95;100777.59;5029268;28;20498;-51
2023/08/21 10:10:37;;;;;;;0.50;0.30;;;;;;;30.90;61.98;100775.91;5005606;28;20460;-51
2023/08/21 10:13:04;;;;;;;0.50;0.30;;;;;;;30.79;60.55;100778.94;5033029;28;20486;-50
2023/08/21 10:15:33;;;;;;;0.50;0.30;;;;;;;30.80;62.04;100780.66;5032611;28;21043;-50
2023/08/21 10:18:19;;;;;;;0.50;0.30;;;;;;;30.93;61.21;100770.09;5032480;28;20921;-51
2023/08/21 10:20:46;;;;;;;0.50;0.30;;;;;;;31.34;61.89;100773.03;5032762;28;20537;-51
2023/08/21 10:23:29;;;;;;;0.50;0.30;;;;;;;31.27;63.37;100776.63;5032485;28;20454;-52
2023/08/21 10:26:01;;;;;;;0.50;0.30;;;;;;;31.19;60.73;100778.31;5032823;28;20448;-51
2023/08/21 10:28:47;;;;;;;0.50;0.30;;;;;;;31.07;60.74;100775.97;5006357;28;20495;-50
2023/08/21 10:31:34;;;;;;;0.50;0.30;;;;;;;31.24;61.24;100766.81;5032390;28;20440;-52
2023/08/21 10:34:05;;;;;;;0.50;0.30;;;;;;;31.31;60.67;100769.78;5028738;28;20499;-51
2023/08/21 10:36:43;;;;;;;0.50;0.30;;;;;;;31.48;59.26;100761.41;5021217;28;20527;-50
2023/08/21 10:39:22;;;;;;;0.50;0.30;;;;;;;31.51;57.16;100760.19;5020598;28;20459;-50
2023/08/21 10:42:01;;;;;;;0.50;0.30;;;;;;;31.48;55.97;100755.03;5032439;28;20535;-50
2023/08/21 10:44:45;;;;;;;0.50;0.30;;;;;;;31.50;56.58;100756.59;5022002;28;20460;-50
2023/08/21 10:47:19;;;;;;;0.50;0.30;;;;;;;31.79;55.83;100760.81;5026288;28;20483;-51
2023/08/21 10:49:57;;;;;;;0.50;0.30;;;;;;;31.48;56.96;100758.66;5032486;28;20467;-50
2023/08/21 10:52:28;;;;;;;0.50;0.20;;;;;;;32.00;54.47;100752.06;5032262;28;20526;-51
2023/08/21 10:54:57;;;;;;;0.50;0.30;;;;;;;32.30;54.04;100753.28;5032153;28;20999;-50
2023/08/21 10:57:24;;;;;;;0.50;0.30;;;;;;;31.65;54.08;100754.03;5032319;28;20451;-51
2023/08/21 10:59:55;;;;;;;0.50;0.30;;;;;;;31.62;53.98;100748.03;5032416;28;20455;-51
2023/08/21 11:02:23;;;;;;;0.43;0.20;;;;;;;31.79;56.37;100745.16;5032184;28;20597;-50
2023/08/21 11:04:51;;;;;;;0.50;0.30;;;;;;;31.75;54.99;100737.44;5032014;28;20467;-50
2023/08/21 11:07:18;;;;;;;0.50;0.30;;;;;;;32.07;53.76;100731.06;5032329;28;20518;-50
2023/08/21 11:09:44;;;;;;;0.50;0.30;;;;;;;32.06;51.85;100741.22;5027495;28;20455;-50
2023/08/21 11:12:14;;;;;;;0.50;0.30;;;;;;;31.93;51.52;100743.63;5032194;28;20829;-50
2023/08/21 11:14:40;;;;;;;0.50;0.30;;;;;;;32.07;51.14;100733.81;5032108;28;20494;-53
2023/08/21 11:17:08;;;;;;;0.50;0.30;;;;;;;32.25;49.31;100729.03;5006527;28;20518;-50
2023/08/21 11:19:36;;;;;;;0.50;0.30;;;;;;;31.99;49.94;100731.94;5032165;28;20535;-50
2023/08/21 11:22:05;;;;;;;0.50;0.30;;;;;;;32.04;49.40;100740.53;5032413;28;20498;-49
2023/08/21 11:24:42;;;;;;;0.50;0.30;;;;;;;32.24;49.40;100727.31;5032038;28;20968;-49